Time;durP1;ratioP1;P1;durP2;ratioP2;P2;SDS_P1;SDS_P2;PMS_P1;PMS_P2;Temp;Humidity;BMP_temperature;BMP_pressure;BME280_temperature;BME280_humidity;BME280_pressure;Samples;Min_cycle;Max_cycle;Signal;HPM_P1;HPM_P2
2024/01/06 00:02:01;;;;;;;0.50;0.50;;;9.30;99.90;;;;;;7388536;19;20151;-76
2024/01/06 00:04:27;;;;;;;0.53;0.50;;;9.30;99.90;;;;;;7389414;19;20195;-76
2024/01/06 00:06:53;;;;;;;0.60;0.60;;;9.30;99.90;;;;;;7385980;19;20510;-76
2024/01/06 00:09:19;;;;;;;0.40;0.40;;;9.30;99.90;;;;;;7388923;19;20183;-76
2024/01/06 00:11:45;;;;;;;2.47;0.50;;;9.40;99.90;;;;;;7388338;19;20145;-76
2024/01/06 00:14:10;;;;;;;0.47;0.40;;;9.30;99.90;;;;;;7395553;19;20191;-76
2024/01/06 00:16:36;;;;;;;1.17;1.00;;;9.30;99.90;;;;;;7396027;19;20163;-76
2024/01/06 00:19:02;;;;;;;0.53;0.50;;;9.40;99.90;;;;;;7398017;19;20130;-76
2024/01/06 00:21:28;;;;;;;0.63;0.57;;;9.30;99.90;;;;;;7396319;19;20509;-77
2024/01/06 00:23:55;;;;;;;1.10;0.80;;;9.30;99.90;;;;;;7395823;19;20424;-77
2024/01/06 00:26:21;;;;;;;0.53;0.50;;;9.30;99.90;;;;;;7396402;19;20135;-76
2024/01/06 00:28:49;;;;;;;0.60;0.43;;;9.30;99.90;;;;;;7396938;19;20142;-76
2024/01/06 00:31:18;;;;;;;0.97;0.90;;;9.30;99.90;;;;;;7397352;19;20214;-76
2024/01/06 00:33:44;;;;;;;0.60;0.43;;;9.30;99.90;;;;;;7397123;19;20159;-77
2024/01/06 00:36:10;;;;;;;1.53;0.93;;;9.30;99.90;;;;;;7396034;19;20493;-75
2024/01/06 00:38:36;;;;;;;0.63;0.50;;;9.20;99.90;;;;;;7395851;19;20466;-77
2024/01/06 00:41:02;;;;;;;0.30;0.30;;;9.30;99.90;;;;;;7397465;19;20146;-77
2024/01/06 00:43:27;;;;;;;0.47;0.47;;;9.30;99.90;;;;;;7395690;19;20141;-77
2024/01/06 00:45:53;;;;;;;0.30;0.30;;;9.10;99.90;;;;;;7395061;19;20436;-76
2024/01/06 00:48:19;;;;;;;0.50;0.50;;;9.20;99.90;;;;;;7396172;19;20225;-75
2024/01/06 00:50:44;;;;;;;1.53;0.50;;;9.20;99.90;;;;;;7392822;19;20210;-76
2024/01/06 00:53:12;;;;;;;0.30;0.30;;;9.20;99.90;;;;;;7395580;19;20146;-76
2024/01/06 00:55:37;;;;;;;0.73;0.60;;;9.20;99.90;;;;;;7394957;19;20157;-76
2024/01/06 00:58:04;;;;;;;0.70;0.70;;;9.20;99.90;;;;;;7395141;19;20150;-76
2024/01/06 01:00:29;;;;;;;0.40;0.30;;;9.30;99.90;;;;;;7392741;19;20140;-76
2024/01/06 01:02:56;;;;;;;0.30;0.30;;;9.20;99.90;;;;;;7397160;19;20445;-76
2024/01/06 01:05:22;;;;;;;0.63;0.40;;;9.20;99.90;;;;;;7392292;19;20219;-76
2024/01/06 01:07:48;;;;;;;0.60;0.57;;;9.30;99.90;;;;;;7394378;19;20514;-76
2024/01/06 01:10:14;;;;;;;0.60;0.60;;;9.20;99.90;;;;;;7392081;19;20146;-75
2024/01/06 01:12:40;;;;;;;0.30;0.30;;;9.10;99.90;;;;;;7393248;19;20147;-76
2024/01/06 01:15:06;;;;;;;0.23;0.23;;;9.10;99.90;;;;;;7394789;19;20500;-76
2024/01/06 01:17:32;;;;;;;0.40;0.40;;;9.10;99.90;;;;;;7392309;19;20159;-75
2024/01/06 01:19:57;;;;;;;1.30;0.30;;;9.10;99.90;;;;;;7393283;19;20158;-77
2024/01/06 01:22:23;;;;;;;0.67;0.33;;;9.20;99.90;;;;;;7393721;19;20142;-76
2024/01/06 01:24:49;;;;;;;0.50;0.50;;;9.10;99.90;;;;;;7392500;19;20660;-76
2024/01/06 01:27:15;;;;;;;3.33;0.73;;;9.10;99.90;;;;;;7394304;19;20139;-76
2024/01/06 01:29:40;;;;;;;0.67;0.67;;;9.10;99.90;;;;;;7393384;19;20134;-76
2024/01/06 01:32:06;;;;;;;1.07;0.50;;;9.20;99.90;;;;;;7394039;19;20623;-76
2024/01/06 01:34:32;;;;;;;0.83;0.63;;;9.20;99.90;;;;;;7392459;19;20147;-76
2024/01/06 01:36:57;;;;;;;0.80;0.60;;;9.10;99.90;;;;;;7392748;19;20147;-76
2024/01/06 01:39:23;;;;;;;0.73;0.57;;;9.20;99.90;;;;;;7392280;19;20134;-77
2024/01/06 01:41:49;;;;;;;1.50;0.60;;;9.20;99.90;;;;;;7394584;19;20131;-78
2024/01/06 01:44:15;;;;;;;0.93;0.50;;;9.20;99.90;;;;;;7386729;19;20131;-76
2024/01/06 01:46:41;;;;;;;0.40;0.40;;;9.20;99.90;;;;;;7390757;19;20146;-77
2024/01/06 01:49:07;;;;;;;0.23;0.23;;;9.10;99.90;;;;;;7392429;19;20147;-77
2024/01/06 01:51:35;;;;;;;1.07;0.60;;;9.10;99.90;;;;;;7391476;19;20214;-75
2024/01/06 01:54:02;;;;;;;0.30;0.30;;;9.10;99.90;;;;;;7394631;19;20130;-76
2024/01/06 01:56:33;;;;;;;0.40;0.40;;;9.10;99.90;;;;;;7392273;19;20152;-76
2024/01/06 01:59:06;;;;;;;0.50;0.43;;;9.10;99.90;;;;;;7391698;19;20210;-77
2024/01/06 02:01:32;;;;;;;0.73;0.70;;;9.10;99.90;;;;;;7391898;19;20142;-77
2024/01/06 02:03:58;;;;;;;0.53;0.40;;;9.10;99.90;;;;;;7392629;19;20495;-76
2024/01/06 02:06:25;;;;;;;0.50;0.50;;;9.10;99.90;;;;;;7391494;19;20204;-76
2024/01/06 02:08:53;;;;;;;0.60;0.60;;;9.10;99.90;;;;;;7391510;19;20149;-76
2024/01/06 02:11:18;;;;;;;0.37;0.30;;;9.10;99.90;;;;;;7395007;19;20164;-76
2024/01/06 02:13:45;;;;;;;0.30;0.30;;;9.10;99.90;;;;;;7390527;19;20150;-76
2024/01/06 02:16:11;;;;;;;0.33;0.30;;;9.00;99.90;;;;;;7392593;19;20143;-75
2024/01/06 02:18:36;;;;;;;1.47;1.03;;;9.10;99.90;;;;;;7391706;19;20194;-75
2024/01/06 02:21:03;;;;;;;0.47;0.40;;;9.10;99.90;;;;;;7393076;19;20931;-76
2024/01/06 02:23:29;;;;;;;2.57;0.60;;;9.00;99.90;;;;;;7391229;19;20497;-76
2024/01/06 02:25:56;;;;;;;1.53;0.70;;;9.00;99.90;;;;;;7392839;19;20481;-77
2024/01/06 02:28:22;;;;;;;0.33;0.33;;;9.00;99.90;;;;;;7390244;19;20139;-76
2024/01/06 02:30:48;;;;;;;0.30;0.30;;;8.90;99.90;;;;;;7392107;19;20149;-76
2024/01/06 02:33:14;;;;;;;0.47;0.40;;;9.00;99.90;;;;;;7393081;19;20599;-76
2024/01/06 02:35:40;;;;;;;0.37;0.37;;;9.00;99.90;;;;;;7389081;19;20139;-76
2024/01/06 02:38:08;;;;;;;2.10;0.67;;;9.00;99.90;;;;;;7391714;19;20253;-76
2024/01/06 02:40:34;;;;;;;0.20;0.20;;;8.90;99.90;;;;;;7391856;19;20142;-76
2024/01/06 02:42:59;;;;;;;0.50;0.50;;;8.90;99.90;;;;;;7389070;19;20202;-76
2024/01/06 02:45:25;;;;;;;0.50;0.50;;;8.80;99.90;;;;;;7390842;19;20146;-76
2024/01/06 02:47:51;;;;;;;0.53;0.20;;;8.80;99.90;;;;;;7391022;19;20142;-77
2024/01/06 02:50:17;;;;;;;1.03;0.40;;;8.90;99.90;;;;;;7390227;19;20139;-76
2024/01/06 02:52:45;;;;;;;0.33;0.33;;;8.90;99.90;;;;;;7391100;19;20144;-76
2024/01/06 02:55:11;;;;;;;0.47;0.20;;;8.90;99.90;;;;;;7392583;19;20138;-76
2024/01/06 02:57:38;;;;;;;0.20;0.20;;;8.90;99.90;;;;;;7393179;19;20572;-76
2024/01/06 03:00:04;;;;;;;0.40;0.40;;;8.90;99.90;;;;;;7390391;19;20158;-77
2024/01/06 03:02:30;;;;;;;0.40;0.40;;;8.90;99.90;;;;;;7389872;19;20575;-76
2024/01/06 03:04:56;;;;;;;0.30;0.30;;;8.90;99.90;;;;;;7385007;19;20203;-77
2024/01/06 03:07:22;;;;;;;0.37;0.37;;;8.90;99.90;;;;;;7391369;19;20130;-76
2024/01/06 03:09:47;;;;;;;0.30;0.30;;;8.90;99.90;;;;;;7390480;19;20138;-75
2024/01/06 03:12:13;;;;;;;0.43;0.40;;;8.90;99.90;;;;;;7392157;19;20131;-76
2024/01/06 03:14:39;;;;;;;0.80;0.77;;;8.80;99.90;;;;;;7390686;19;20126;-76
2024/01/06 03:17:05;;;;;;;0.60;0.60;;;8.90;99.90;;;;;;7390744;19;20161;-76
2024/01/06 03:19:31;;;;;;;0.57;0.57;;;8.90;99.90;;;;;;7390056;19;20151;-76
2024/01/06 03:21:57;;;;;;;1.60;0.73;;;8.90;99.90;;;;;;7392079;19;20135;-76
2024/01/06 03:24:24;;;;;;;0.93;0.47;;;8.80;99.90;;;;;;7390263;19;20143;-77
2024/01/06 03:26:50;;;;;;;0.50;0.40;;;8.80;99.90;;;;;;7391738;19;20130;-76
2024/01/06 03:29:16;;;;;;;0.63;0.63;;;8.80;99.90;;;;;;7389157;19;20547;-75
2024/01/06 03:31:45;;;;;;;0.50;0.50;;;8.80;99.90;;;;;;7390790;19;20166;-76
2024/01/06 03:34:11;;;;;;;0.80;0.80;;;8.80;99.90;;;;;;7388896;19;20138;-76
2024/01/06 03:36:38;;;;;;;1.77;1.00;;;8.90;99.90;;;;;;7389360;19;20221;-75
2024/01/06 03:39:04;;;;;;;1.30;1.07;;;8.90;99.90;;;;;;7388710;19;21041;-75
2024/01/06 03:41:31;;;;;;;1.43;0.70;;;8.80;99.90;;;;;;7389112;19;20229;-76
2024/01/06 03:43:56;;;;;;;0.37;0.37;;;8.70;99.90;;;;;;7390192;19;20639;-76
2024/01/06 03:46:22;;;;;;;1.17;0.63;;;8.80;99.90;;;;;;7388736;19;20154;-76
2024/01/06 03:48:48;;;;;;;0.93;0.50;;;8.80;99.90;;;;;;7394959;19;20446;-77
2024/01/06 03:51:14;;;;;;;0.57;0.43;;;8.80;99.90;;;;;;7392763;19;20205;-76
2024/01/06 03:53:40;;;;;;;0.50;0.40;;;8.80;99.90;;;;;;7398278;19;20138;-76
2024/01/06 03:56:06;;;;;;;0.60;0.47;;;8.80;99.90;;;;;;7396658;19;20164;-76
2024/01/06 03:58:32;;;;;;;0.57;0.50;;;8.70;99.90;;;;;;7397012;19;20130;-76
2024/01/06 04:00:58;;;;;;;0.20;0.20;;;8.80;99.90;;;;;;7397677;19;20466;-76
2024/01/06 04:03:24;;;;;;;0.30;0.30;;;8.80;99.90;;;;;;7397470;19;20136;-76
2024/01/06 04:05:49;;;;;;;0.40;0.40;;;8.80;99.90;;;;;;7395539;19;20154;-76
2024/01/06 04:08:15;;;;;;;3.73;0.80;;;8.70;99.90;;;;;;7398998;19;20166;-76
2024/01/06 04:10:41;;;;;;;0.57;0.43;;;8.70;99.90;;;;;;7393298;19;20135;-77
2024/01/06 04:13:11;;;;;;;1.07;0.50;;;8.70;99.90;;;;;;7397214;19;20135;-76
2024/01/06 04:15:37;;;;;;;0.60;0.60;;;8.70;99.90;;;;;;7397230;19;20143;-75
2024/01/06 04:18:03;;;;;;;0.40;0.40;;;8.60;99.90;;;;;;7395789;19;20171;-76
2024/01/06 04:20:30;;;;;;;0.23;0.23;;;8.70;99.90;;;;;;7395524;19;20168;-75
2024/01/06 04:22:55;;;;;;;0.50;0.40;;;8.70;99.90;;;;;;7396034;19;20210;-75
2024/01/06 04:25:21;;;;;;;0.50;0.33;;;8.70;99.90;;;;;;7394870;19;20139;-75
2024/01/06 04:27:48;;;;;;;0.30;0.30;;;8.70;99.90;;;;;;7397803;19;20522;-75
2024/01/06 04:30:14;;;;;;;1.30;1.00;;;8.80;99.90;;;;;;7395218;19;20137;-75
2024/01/06 04:32:40;;;;;;;0.40;0.40;;;8.60;99.90;;;;;;7395775;19;20604;-75
2024/01/06 04:35:07;;;;;;;0.40;0.40;;;8.60;99.90;;;;;;7394175;19;20138;-74
2024/01/06 04:37:32;;;;;;;0.20;0.20;;;8.70;99.90;;;;;;7395068;19;20486;-76
2024/01/06 04:39:58;;;;;;;0.40;0.40;;;8.70;99.90;;;;;;7396276;19;20215;-75
2024/01/06 04:42:24;;;;;;;1.60;0.30;;;8.80;99.90;;;;;;7396051;19;20450;-75
2024/01/06 04:44:51;;;;;;;0.67;0.50;;;8.80;99.90;;;;;;7394914;19;20151;-76
2024/01/06 04:47:17;;;;;;;0.30;0.30;;;8.70;99.90;;;;;;7397163;19;20163;-75
2024/01/06 04:49:44;;;;;;;0.43;0.43;;;8.80;99.90;;;;;;7394597;19;20954;-75
2024/01/06 04:52:10;;;;;;;1.73;0.50;;;8.70;99.90;;;;;;7395305;19;20139;-75
2024/01/06 04:54:36;;;;;;;0.40;0.40;;;8.70;99.90;;;;;;7395460;19;20243;-76
2024/01/06 04:57:01;;;;;;;0.40;0.40;;;8.70;99.90;;;;;;7393893;19;20585;-74
2024/01/06 04:59:27;;;;;;;1.30;0.30;;;8.60;99.90;;;;;;7392691;19;20764;-76
2024/01/06 05:01:53;;;;;;;0.53;0.53;;;8.60;99.90;;;;;;7394631;19;20123;-76
2024/01/06 05:04:19;;;;;;;0.30;0.30;;;8.60;99.90;;;;;;7392827;19;20151;-75
2024/01/06 05:06:45;;;;;;;0.40;0.30;;;8.70;99.90;;;;;;7394241;19;20160;-76
2024/01/06 05:09:11;;;;;;;0.30;0.30;;;8.70;99.90;;;;;;7393346;19;20175;-76
2024/01/06 05:11:38;;;;;;;0.20;0.20;;;8.70;99.90;;;;;;7393765;19;20134;-75
2024/01/06 05:14:03;;;;;;;0.30;0.30;;;8.80;99.90;;;;;;7394852;19;20143;-74
2024/01/06 05:16:29;;;;;;;0.93;0.60;;;8.70;99.90;;;;;;7392958;19;20130;-74
2024/01/06 05:18:55;;;;;;;0.30;0.30;;;8.70;99.90;;;;;;7395657;19;20599;-76
2024/01/06 05:21:20;;;;;;;0.43;0.43;;;8.70;99.90;;;;;;7394360;19;20221;-76
2024/01/06 05:23:46;;;;;;;0.20;0.20;;;8.70;99.90;;;;;;7396443;19;20622;-76
2024/01/06 05:26:13;;;;;;;0.13;0.13;;;8.70;99.90;;;;;;7393136;19;20148;-76
2024/01/06 05:28:40;;;;;;;0.47;0.40;;;8.70;99.90;;;;;;7392703;19;20175;-75
2024/01/06 05:31:06;;;;;;;0.40;0.40;;;8.80;99.90;;;;;;7391224;19;20150;-75
2024/01/06 05:33:31;;;;;;;11.23;0.77;;;8.80;99.90;;;;;;7393917;19;20218;-75
2024/01/06 05:35:57;;;;;;;0.20;0.20;;;8.80;99.90;;;;;;7393098;19;20160;-76
2024/01/06 05:38:23;;;;;;;0.70;0.70;;;8.70;99.90;;;;;;7394282;19;20156;-75
2024/01/06 05:40:49;;;;;;;0.43;0.43;;;8.60;99.90;;;;;;7393670;19;20142;-75
2024/01/06 05:43:14;;;;;;;0.50;0.40;;;8.40;99.90;;;;;;7395776;19;20139;-76
2024/01/06 05:45:43;;;;;;;0.50;0.40;;;8.50;99.90;;;;;;7392318;19;20645;-76
2024/01/06 05:48:10;;;;;;;0.43;0.30;;;8.70;99.90;;;;;;7393568;19;20504;-75
2024/01/06 05:50:36;;;;;;;0.20;0.20;;;8.70;99.90;;;;;;7390416;19;20622;-75
2024/01/06 05:53:01;;;;;;;0.27;0.27;;;8.70;99.90;;;;;;7394327;19;20158;-75
2024/01/06 05:55:27;;;;;;;1.07;0.30;;;8.70;99.90;;;;;;7391571;19;20590;-74
2024/01/06 05:57:53;;;;;;;0.40;0.40;;;8.70;99.90;;;;;;7392408;19;20135;-75
2024/01/06 06:00:19;;;;;;;0.40;0.40;;;8.60;99.90;;;;;;7392581;19;20218;-75
2024/01/06 06:02:45;;;;;;;0.50;0.50;;;8.70;99.90;;;;;;7392992;19;20175;-76
2024/01/06 06:05:10;;;;;;;0.40;0.30;;;8.70;99.90;;;;;;7391231;19;20182;-75
2024/01/06 06:07:39;;;;;;;0.40;0.40;;;8.60;99.90;;;;;;7394501;19;20147;-75
2024/01/06 06:10:09;;;;;;;1.37;0.40;;;8.60;99.90;;;;;;7387390;19;20468;-75
2024/01/06 06:12:35;;;;;;;0.40;0.40;;;8.60;99.90;;;;;;7393175;19;20635;-75
2024/01/06 06:15:02;;;;;;;0.40;0.30;;;8.50;99.90;;;;;;7392911;19;20137;-75
2024/01/06 06:17:28;;;;;;;1.00;0.90;;;8.60;99.90;;;;;;7391334;19;20138;-75
2024/01/06 06:19:53;;;;;;;0.30;0.30;;;8.60;99.90;;;;;;7392588;19;20146;-76
2024/01/06 06:22:19;;;;;;;0.70;0.70;;;8.60;99.90;;;;;;7394179;19;20718;-76
2024/01/06 06:24:45;;;;;;;0.30;0.30;;;8.60;99.90;;;;;;7389897;19;20250;-75
2024/01/06 06:27:10;;;;;;;0.60;0.40;;;8.60;99.90;;;;;;7394057;19;20476;-76
2024/01/06 06:29:38;;;;;;;0.23;0.23;;;8.60;99.90;;;;;;7390360;19;20866;-76
2024/01/06 06:32:03;;;;;;;0.30;0.30;;;8.60;99.90;;;;;;7394131;19;20651;-76
2024/01/06 06:34:29;;;;;;;2.23;0.30;;;8.60;99.90;;;;;;7390661;19;20198;-76
2024/01/06 06:36:55;;;;;;;0.63;0.50;;;8.60;99.90;;;;;;7391711;19;20215;-76
2024/01/06 06:39:20;;;;;;;0.30;0.30;;;8.60;99.90;;;;;;7392211;19;20138;-76
2024/01/06 06:41:46;;;;;;;2.63;0.40;;;8.70;99.90;;;;;;7391751;19;20605;-76
2024/01/06 06:44:12;;;;;;;0.20;0.20;;;8.70;99.90;;;;;;7392497;19;20219;-75
2024/01/06 06:46:38;;;;;;;0.30;0.30;;;8.60;99.90;;;;;;7393357;19;20130;-75
2024/01/06 06:49:03;;;;;;;0.40;0.40;;;8.50;99.90;;;;;;7390097;19;20129;-76
2024/01/06 06:51:30;;;;;;;0.40;0.40;;;8.70;99.90;;;;;;7393005;19;20636;-75
2024/01/06 06:53:56;;;;;;;0.57;0.50;;;8.70;99.90;;;;;;7390085;19;20142;-76
2024/01/06 06:56:22;;;;;;;0.53;0.50;;;8.70;99.90;;;;;;7393002;19;20828;-75
2024/01/06 06:58:48;;;;;;;0.90;0.40;;;8.70;99.90;;;;;;7389402;19;20259;-76
2024/01/06 07:01:15;;;;;;;0.30;0.30;;;8.60;99.90;;;;;;7390570;19;20134;-76
2024/01/06 07:03:41;;;;;;;0.40;0.40;;;8.60;99.90;;;;;;7388968;19;20186;-75
2024/01/06 07:06:07;;;;;;;0.50;0.50;;;8.60;99.90;;;;;;7388876;19;20285;-75
2024/01/06 07:08:32;;;;;;;0.83;0.60;;;8.50;99.90;;;;;;7389268;19;20218;-76
2024/01/06 07:10:58;;;;;;;0.70;0.50;;;8.50;99.90;;;;;;7389567;19;20143;-76
2024/01/06 07:13:24;;;;;;;0.30;0.30;;;8.60;99.90;;;;;;7389924;19;20134;-74
2024/01/06 07:15:50;;;;;;;0.63;0.47;;;8.70;99.90;;;;;;7389838;19;20446;-76
2024/01/06 07:18:15;;;;;;;0.97;0.30;;;8.70;99.90;;;;;;7391126;19;20134;-75
2024/01/06 07:20:41;;;;;;;0.63;0.63;;;8.60;99.90;;;;;;7390188;19;20135;-75
2024/01/06 07:23:07;;;;;;;0.23;0.23;;;8.60;99.90;;;;;;7388567;19;20818;-76
2024/01/06 07:25:33;;;;;;;0.80;0.43;;;8.60;99.90;;;;;;7389859;19;20132;-76
2024/01/06 07:27:58;;;;;;;0.30;0.30;;;8.50;99.90;;;;;;7392110;19;20130;-77
2024/01/06 07:30:24;;;;;;;0.20;0.20;;;8.60;99.90;;;;;;7387647;19;20146;-76
2024/01/06 07:32:51;;;;;;;0.50;0.50;;;8.60;99.90;;;;;;7391210;19;20151;-76
2024/01/06 07:35:17;;;;;;;0.60;0.40;;;8.60;99.90;;;;;;7388836;19;20158;-75
2024/01/06 07:37:43;;;;;;;0.70;0.63;;;8.50;99.90;;;;;;7391142;19;20168;-75
2024/01/06 07:40:09;;;;;;;0.60;0.53;;;8.50;99.90;;;;;;7390802;19;20220;-76
2024/01/06 07:42:35;;;;;;;1.10;1.00;;;8.50;99.90;;;;;;7388312;19;20269;-74
2024/01/06 07:45:02;;;;;;;0.37;0.37;;;8.50;99.90;;;;;;7388597;19;20251;-76
2024/01/06 07:47:27;;;;;;;0.73;0.40;;;8.60;99.90;;;;;;7389272;19;20468;-77
2024/01/06 07:49:54;;;;;;;0.30;0.23;;;8.50;99.90;;;;;;7387184;19;20149;-76
2024/01/06 07:52:20;;;;;;;0.30;0.30;;;8.50;99.90;;;;;;7387905;19;20138;-75
2024/01/06 07:54:46;;;;;;;1.47;0.83;;;8.60;99.90;;;;;;7390953;19;20149;-77
2024/01/06 07:57:12;;;;;;;0.50;0.50;;;8.60;99.90;;;;;;7387612;19;20138;-75
2024/01/06 07:59:38;;;;;;;0.47;0.40;;;8.60;99.90;;;;;;7388083;19;20154;-76
2024/01/06 08:02:04;;;;;;;0.40;0.40;;;8.60;99.90;;;;;;7387969;19;20163;-75
2024/01/06 08:04:30;;;;;;;0.33;0.33;;;8.60;99.90;;;;;;7387171;19;20177;-77
2024/01/06 08:06:55;;;;;;;0.23;0.23;;;8.60;99.90;;;;;;7385874;19;20151;-77
2024/01/06 08:09:23;;;;;;;0.67;0.30;;;8.70;99.90;;;;;;7386821;19;20553;-76
2024/01/06 08:11:49;;;;;;;0.40;0.40;;;8.60;99.90;;;;;;7388822;19;20801;-77
2024/01/06 08:14:17;;;;;;;0.50;0.50;;;8.50;99.90;;;;;;7389330;19;20142;-76
2024/01/06 08:16:43;;;;;;;0.97;0.40;;;8.60;99.90;;;;;;7386857;19;20150;-76
2024/01/06 08:19:09;;;;;;;0.60;0.60;;;8.60;99.90;;;;;;7387761;19;20161;-76
2024/01/06 08:21:35;;;;;;;0.63;0.40;;;8.60;99.90;;;;;;7387394;19;20576;-78
2024/01/06 08:24:02;;;;;;;0.70;0.30;;;8.70;99.90;;;;;;7388623;19;20206;-75
2024/01/06 08:26:28;;;;;;;0.53;0.50;;;8.60;99.90;;;;;;7387996;19;20507;-78
2024/01/06 08:28:53;;;;;;;0.27;0.27;;;8.70;99.90;;;;;;7388069;19;20206;-77
2024/01/06 08:31:19;;;;;;;0.20;0.20;;;8.70;99.90;;;;;;7385021;19;20222;-77
2024/01/06 08:33:45;;;;;;;0.80;0.30;;;8.70;99.90;;;;;;7389231;19;20135;-77
2024/01/06 08:36:11;;;;;;;0.50;0.40;;;8.60;99.90;;;;;;7396420;19;20145;-76
2024/01/06 08:38:37;;;;;;;0.30;0.30;;;8.70;99.90;;;;;;7394509;19;20139;-77
2024/01/06 08:41:03;;;;;;;0.30;0.30;;;8.80;99.90;;;;;;7394302;19;20176;-78
2024/01/06 08:43:28;;;;;;;0.50;0.50;;;8.80;99.90;;;;;;7394514;19;21023;-79
2024/01/06 08:45:54;;;;;;;0.30;0.30;;;8.80;99.90;;;;;;7395538;19;20619;-80
2024/01/06 08:48:21;;;;;;;0.70;0.47;;;8.80;99.90;;;;;;7395028;19;20640;-77
2024/01/06 08:50:47;;;;;;;0.40;0.40;;;8.70;99.90;;;;;;7393456;19;20445;-79
2024/01/06 08:53:13;;;;;;;0.30;0.30;;;8.80;99.90;;;;;;7394354;19;20134;-79
2024/01/06 08:55:38;;;;;;;0.50;0.50;;;8.90;99.90;;;;;;7393507;19;20131;-79
2024/01/06 08:58:05;;;;;;;0.93;0.43;;;8.90;99.90;;;;;;7396844;19;20139;-79
2024/01/06 09:00:31;;;;;;;0.33;0.30;;;8.90;99.90;;;;;;7394623;19;20588;-79
2024/01/06 09:02:57;;;;;;;0.60;0.60;;;8.90;99.90;;;;;;7394467;19;20185;-79
2024/01/06 09:05:22;;;;;;;0.87;0.50;;;8.90;99.90;;;;;;7391871;19;20204;-78
2024/01/06 09:07:50;;;;;;;0.20;0.20;;;8.80;99.90;;;;;;7395906;19;20170;-77
2024/01/06 09:10:17;;;;;;;0.30;0.30;;;8.80;99.90;;;;;;7390569;19;20134;-80
2024/01/06 09:12:45;;;;;;;0.20;0.20;;;8.80;99.90;;;;;;7389646;19;20177;-78
2024/01/06 09:15:11;;;;;;;0.30;0.30;;;8.90;99.90;;;;;;7392792;19;20243;-78
2024/01/06 09:17:37;;;;;;;0.20;0.20;;;8.90;99.90;;;;;;7392776;19;20218;-79
2024/01/06 09:20:06;;;;;;;0.30;0.30;;;8.90;99.90;;;;;;7391921;19;20142;-77
2024/01/06 09:22:32;;;;;;;0.20;0.20;;;8.90;99.90;;;;;;7395091;19;20290;-78
2024/01/06 09:24:59;;;;;;;0.40;0.40;;;9.00;99.90;;;;;;7393299;19;20139;-80
2024/01/06 09:27:24;;;;;;;1.90;0.50;;;9.00;99.90;;;;;;7395060;19;20130;-78
2024/01/06 09:29:50;;;;;;;1.50;0.60;;;9.00;99.90;;;;;;7390694;19;20149;-79
2024/01/06 09:32:16;;;;;;;0.40;0.40;;;9.10;99.90;;;;;;7393143;19;20199;-78
2024/01/06 09:34:42;;;;;;;1.07;0.50;;;9.10;99.90;;;;;;7390056;19;20130;-79
2024/01/06 09:37:08;;;;;;;0.50;0.50;;;9.10;99.90;;;;;;7393062;19;20160;-79
2024/01/06 09:39:34;;;;;;;0.43;0.43;;;9.20;99.90;;;;;;7390550;19;20596;-80
2024/01/06 09:41:59;;;;;;;0.30;0.30;;;9.20;99.90;;;;;;7393638;19;20146;-80
2024/01/06 09:44:25;;;;;;;0.37;0.37;;;9.20;99.90;;;;;;7392718;19;20222;-79
2024/01/06 09:46:52;;;;;;;1.17;0.37;;;9.20;99.90;;;;;;7393820;19;20147;-79
2024/01/06 09:49:23;;;;;;;0.33;0.33;;;9.10;99.90;;;;;;7393342;19;20231;-78
2024/01/06 09:51:53;;;;;;;0.50;0.50;;;9.10;99.90;;;;;;7392837;19;20141;-77
2024/01/06 09:54:24;;;;;;;0.40;0.40;;;9.20;99.90;;;;;;7391058;19;20158;-79
2024/01/06 09:56:50;;;;;;;0.20;0.20;;;9.10;99.90;;;;;;7394302;19;20147;-79
2024/01/06 09:59:16;;;;;;;0.30;0.30;;;9.20;99.90;;;;;;7391161;19;20169;-82
2024/01/06 10:01:42;;;;;;;0.30;0.30;;;9.20;99.90;;;;;;7392398;19;20305;-78
2024/01/06 10:04:08;;;;;;;0.30;0.30;;;9.20;99.90;;;;;;7392548;19;20773;-80
2024/01/06 10:06:35;;;;;;;1.03;0.93;;;9.20;99.90;;;;;;7390067;19;20157;-82
2024/01/06 10:09:01;;;;;;;0.30;0.30;;;9.10;99.90;;;;;;7391623;19;20174;-79
2024/01/06 10:11:27;;;;;;;0.33;0.33;;;9.20;99.90;;;;;;7391295;19;20138;-79
2024/01/06 10:13:55;;;;;;;0.40;0.40;;;9.20;99.90;;;;;;7392619;19;20150;-79
2024/01/06 10:16:25;;;;;;;0.30;0.30;;;9.30;99.90;;;;;;7396375;19;20213;-79
2024/01/06 10:18:52;;;;;;;0.30;0.30;;;9.30;99.90;;;;;;7392986;19;20134;-78
2024/01/06 10:21:21;;;;;;;0.60;0.60;;;9.30;99.90;;;;;;7390688;19;20160;-79
2024/01/06 10:23:48;;;;;;;0.40;0.30;;;9.30;99.90;;;;;;7392009;19;20134;-80
2024/01/06 10:26:14;;;;;;;0.27;0.27;;;9.30;99.90;;;;;;7389804;19;20531;-80
2024/01/06 10:28:41;;;;;;;0.40;0.40;;;9.20;99.90;;;;;;7390457;19;20151;-82
2024/01/06 10:31:08;;;;;;;0.43;0.43;;;9.20;99.90;;;;;;7388893;19;20498;-82
2024/01/06 10:33:34;;;;;;;0.47;0.40;;;9.20;99.90;;;;;;7391188;19;20498;-80
2024/01/06 10:36:01;;;;;;;0.40;0.40;;;9.30;99.90;;;;;;7389858;19;20150;-80
2024/01/06 10:38:27;;;;;;;0.37;0.37;;;9.30;99.90;;;;;;7389591;19;20173;-80
2024/01/06 10:41:01;;;;;;;0.30;0.30;;;9.20;99.90;;;;;;7385956;19;20699;-81
2024/01/06 10:43:34;;;;;;;0.50;0.50;;;9.20;99.90;;;;;;7389817;19;20134;-80
2024/01/06 10:46:04;;;;;;;0.30;0.30;;;9.10;99.90;;;;;;7388140;19;20146;-82
2024/01/06 10:48:33;;;;;;;0.20;0.20;;;9.20;99.90;;;;;;7385514;19;20141;-81
2024/01/06 10:50:59;;;;;;;0.30;0.30;;;9.20;99.90;;;;;;7386463;19;20135;-81
2024/01/06 10:53:27;;;;;;;0.37;0.37;;;9.20;99.90;;;;;;7389710;19;20519;-81
2024/01/06 10:55:52;;;;;;;0.40;0.40;;;9.20;99.90;;;;;;7387277;19;20142;-82
2024/01/06 10:58:19;;;;;;;0.30;0.30;;;9.20;99.90;;;;;;7391962;19;20136;-81
2024/01/06 11:00:45;;;;;;;0.40;0.40;;;9.30;99.90;;;;;;7388659;19;20624;-81
2024/01/06 11:03:14;;;;;;;0.47;0.43;;;9.30;99.90;;;;;;7391540;19;20134;-81
2024/01/06 11:05:42;;;;;;;0.30;0.30;;;9.30;99.90;;;;;;7390420;19;20218;-80
2024/01/06 11:08:08;;;;;;;0.30;0.30;;;9.30;99.90;;;;;;7390681;19;20134;-81
2024/01/06 11:10:36;;;;;;;0.43;0.43;;;9.10;99.90;;;;;;7387877;19;20146;-82
2024/01/06 11:13:12;;;;;;;0.30;0.30;;;9.10;99.90;;;;;;7390517;19;20144;-82
2024/01/06 11:15:43;;;;;;;0.40;0.40;;;9.10;99.90;;;;;;7390830;19;20161;-80
2024/01/06 11:18:35;;;;;;;1.70;0.60;;;9.10;99.90;;;;;;7388708;19;20227;-82
2024/01/06 11:21:28;;;;;;;0.50;0.50;;;9.20;99.90;;;;;;7391789;19;20135;-81
2024/01/06 11:24:06;;;;;;;0.40;0.40;;;9.20;99.90;;;;;;7390213;19;20150;-81
2024/01/06 11:26:32;;;;;;;0.50;0.50;;;9.30;99.90;;;;;;7388428;19;20142;-81
2024/01/06 11:29:00;;;;;;;0.37;0.37;;;9.20;99.90;;;;;;7390663;19;20142;-81
2024/01/06 11:31:31;;;;;;;0.30;0.30;;;9.20;99.90;;;;;;7386271;19;20134;-83
2024/01/06 11:34:11;;;;;;;0.30;0.30;;;9.20;99.90;;;;;;7391228;19;20167;-80
2024/01/06 11:36:38;;;;;;;0.40;0.40;;;9.20;99.90;;;;;;7392467;19;20134;-81
2024/01/06 11:39:05;;;;;;;0.30;0.30;;;9.20;99.90;;;;;;7392084;19;20477;-78
2024/01/06 11:41:51;;;;;;;0.33;0.33;;;9.30;99.90;;;;;;7390465;19;20137;-81
2024/01/06 11:44:28;;;;;;;0.40;0.40;;;9.00;99.90;;;;;;7390279;19;20138;-81
2024/01/06 11:46:57;;;;;;;0.30;0.30;;;9.10;99.90;;;;;;7390756;19;20137;-80
2024/01/06 11:49:29;;;;;;;0.30;0.30;;;9.10;99.90;;;;;;7388766;19;20119;-80
2024/01/06 11:51:56;;;;;;;0.60;0.60;;;9.00;99.90;;;;;;7388821;19;20154;-80
2024/01/06 11:54:22;;;;;;;0.60;0.60;;;8.90;99.90;;;;;;7388579;19;20134;-80
2024/01/06 11:56:48;;;;;;;0.60;0.60;;;9.10;99.90;;;;;;7391093;19;20135;-79
2024/01/06 11:59:15;;;;;;;0.70;0.50;;;9.10;99.90;;;;;;7400462;19;20123;-80
2024/01/06 12:01:40;;;;;;;0.70;0.70;;;9.10;99.90;;;;;;7389757;19;20131;-81
2024/01/06 12:04:07;;;;;;;1.03;0.90;;;9.10;99.90;;;;;;7389131;19;20154;-81
2024/01/06 12:06:33;;;;;;;0.60;0.60;;;9.00;99.90;;;;;;7386983;19;20154;-80
2024/01/06 12:09:06;;;;;;;0.50;0.50;;;9.00;99.90;;;;;;7392027;19;20153;-81
2024/01/06 12:11:32;;;;;;;0.80;0.70;;;8.90;99.90;;;;;;7393242;19;20169;-78
2024/01/06 12:13:58;;;;;;;0.90;0.90;;;8.90;99.90;;;;;;7396080;19;20154;-80
2024/01/06 12:16:27;;;;;;;1.00;0.83;;;9.00;99.90;;;;;;7395487;19;20146;-80
2024/01/06 12:18:55;;;;;;;1.03;0.70;;;9.00;99.90;;;;;;7397269;19;20209;-81
2024/01/06 12:21:25;;;;;;;0.37;0.27;;;9.10;99.90;;;;;;7393946;19;20131;-79
2024/01/06 12:23:51;;;;;;;0.47;0.47;;;9.00;99.90;;;;;;7397499;19;20138;-81
2024/01/06 12:26:20;;;;;;;0.73;0.53;;;9.10;99.90;;;;;;7395711;19;20153;-80
2024/01/06 12:28:48;;;;;;;1.23;1.10;;;9.10;99.90;;;;;;7394542;19;20154;-82
2024/01/06 12:31:16;;;;;;;0.40;0.40;;;9.10;99.90;;;;;;7394054;19;20143;-81
2024/01/06 12:33:42;;;;;;;0.90;0.70;;;9.00;99.90;;;;;;7397429;19;20138;-81
2024/01/06 12:36:08;;;;;;;0.50;0.50;;;9.00;99.90;;;;;;7392916;19;20142;-80
2024/01/06 12:38:35;;;;;;;0.90;0.70;;;8.90;99.90;;;;;;7395076;19;20142;-80
2024/01/06 12:41:00;;;;;;;0.70;0.70;;;9.00;99.90;;;;;;7395697;19;20736;-82
2024/01/06 12:43:27;;;;;;;0.57;0.57;;;9.00;99.90;;;;;;7395882;19;20130;-80
2024/01/06 12:45:53;;;;;;;0.30;0.30;;;8.90;99.90;;;;;;7393275;19;20162;-80
2024/01/06 12:48:19;;;;;;;0.60;0.60;;;8.90;99.90;;;;;;7395788;19;20180;-81
2024/01/06 12:50:45;;;;;;;0.70;0.70;;;8.90;99.90;;;;;;7390980;19;20127;-82
2024/01/06 12:53:15;;;;;;;0.57;0.57;;;9.00;99.90;;;;;;7394813;19;20151;-82
2024/01/06 12:55:41;;;;;;;0.97;0.83;;;9.00;99.90;;;;;;7393690;19;20138;-81